Ban Bo Haeo, Thailand

3:12 PM +07 on September 22, 2017 (GMT +0700)
Lampang | | Change Station

Elev 794 ft 18.28 °N, 99.52 °E | Updated 12 minutes ago

Mostly Cloudy
Mostly Cloudy
81 °F
Feels Like 86 °F
N
2
Wind Variable Wind from Variable

Today
High -- | Low -- °F
--% Chance of Precip.
Yesterday
High -- | Low -- °F
Precip. -- in
Pressure 29.74 in
Visibility 6.2 miles
Clouds Scattered Clouds 2500 ft
Mostly Cloudy 10000 ft
Heat Index 86 °F
Dew Point 75 °F
Humidity 84%
Rainfall 0.00 in
Snow Depth Not available.
6:11 AM 6:18 PM
Waxing Crescent, 5% visible
METAR VTCL 220800Z VRB02KT 9999 SCT025 BKN100 27/24 Q1007 RETSRA
Pressure 29.74 in
Visibility 6.2 miles
Clouds Scattered Clouds 2500 ft
Mostly Cloudy 10000 ft
Heat Index 86 °F
Dew Point 75 °F
Humidity 84%
Rainfall 0.00 in
Snow Depth Not available.
6:11 AM 6:18 PM
Waxing Crescent, 5% visible
METAR VTCL 220800Z VRB02KT 9999 SCT025 BKN100 27/24 Q1007 RETSRA

Get Severe Weather Alerts

Thanks for signing up!

Be on the lookout for a verification email in your inbox.

You'll start receiving the daily forecast at 6 AM.

×

10-Day Weather Forecast

No radar image for this location.
×

Almanac

Astronomy

Sep. 22, 2017 Rise Set
Actual Time
Civil Twilight
Nautical Twilight
Astronomical Twilight
Moon
Length of Visible Light
Length of Day
Tomorrow will be .
, % of the Moon is Illuminated

Today's Extremes

Country Highs Country Lows

Community

WunderPhotos

Category 6

Welcome to Category 6. This is the collective home for Weather Underground's featured writeups by Dr. Jeff Masters (right), Bob Henson (left), Chris Burt, and other regular contributors.

Nearby

Air Quality

  Air Quality AQ Index Pollutant
Not available.

Snow Depth

Station Depth Elevation

Earthquake Activity

City Distance Mag. Time & Date
Minimum magnitude displayed is 2.5.

Coastal Water Temperatures

Place Temperature

Stations

Nearby Weather Stations

Station Location Temp. Windchill Dew Point Humidity Wind Precip. Elev Updated Type